createdAt,value
2023-02-23T00:02:30.976Z,40.50
2023-02-23T00:04:58.128Z,39.38
2023-02-23T00:07:31.870Z,41.90
2023-02-23T00:10:05.826Z,39.72
2023-02-23T00:12:38.880Z,39.20
2023-02-23T00:15:06.548Z,38.17
2023-02-23T00:17:39.847Z,37.13
2023-02-23T00:20:09.172Z,33.60
2023-02-23T00:22:36.170Z,35.63
2023-02-23T00:25:09.885Z,32.33
2023-02-23T00:27:37.353Z,30.23
2023-02-23T00:30:11.922Z,30.55
2023-02-23T00:32:45.874Z,31.10
2023-02-23T00:35:13.027Z,30.75
2023-02-23T00:37:39.966Z,28.50
2023-02-23T00:40:13.938Z,29.42
2023-02-23T00:42:47.849Z,29.42
2023-02-23T00:45:15.037Z,29.13
2023-02-23T00:47:49.904Z,30.90
2023-02-23T00:50:17.659Z,30.25
2023-02-23T00:52:44.777Z,30.95
2023-02-23T00:55:19.865Z,30.45
2023-02-23T00:57:52.847Z,30.67
2023-02-23T01:00:20.251Z,30.25
2023-02-23T01:02:50.224Z,33.50
2023-02-23T01:05:23.903Z,34.83
2023-02-23T01:07:50.832Z,37.70
2023-02-23T01:10:17.951Z,51.80
2023-02-23T01:12:55.857Z,55.10
2023-02-23T01:15:28.976Z,48.53
2023-02-23T01:17:56.190Z,42.63
2023-02-23T01:20:29.876Z,35.97
2023-02-23T01:22:56.933Z,35.20
2023-02-23T01:25:23.951Z,35.83
2023-02-23T01:27:57.903Z,33.55
2023-02-23T01:30:31.877Z,34.85
2023-02-23T01:33:00.500Z,32.95
2023-02-23T01:35:33.859Z,32.17
2023-02-23T01:38:01.010Z,30.30
2023-02-23T01:40:34.860Z,30.38
2023-02-23T01:43:22.450Z,29.42
2023-02-23T01:45:56.078Z,28.25
2023-02-23T01:48:27.393Z,30.23
2023-02-23T01:51:04.990Z,29.95
2023-02-23T01:53:34.852Z,31.42
2023-02-23T01:56:16.918Z,32.70
2023-02-23T01:58:46.493Z,31.90
2023-02-23T02:01:20.175Z,31.95
2023-02-23T02:03:50.169Z,31.25
2023-02-23T02:06:24.971Z,31.27
2023-02-23T02:08:53.161Z,31.85
2023-02-23T02:11:26.891Z,32.20
2023-02-23T02:14:02.900Z,30.88
2023-02-23T02:17:16.993Z,29.13
2023-02-23T02:20:02.553Z,27.30
2023-02-23T02:22:54.986Z,28.45
2023-02-23T02:26:03.017Z,29.00
2023-02-23T02:28:50.189Z,29.48
2023-02-23T02:31:51.008Z,28.42
2023-02-23T02:35:01.219Z,27.88
2023-02-23T02:37:57.962Z,29.10
2023-02-23T02:40:38.168Z,28.40
2023-02-23T02:43:23.897Z,30.33
2023-02-23T02:45:55.700Z,33.85
2023-02-23T02:48:43.887Z,36.92
2023-02-23T02:51:42.039Z,33.20
2023-02-23T02:54:23.664Z,33.20
2023-02-23T02:56:57.082Z,35.70
2023-02-23T02:59:24.496Z,37.05
2023-02-23T03:01:51.740Z,35.42
2023-02-23T03:04:31.034Z,34.20
2023-02-23T03:06:59.938Z,32.17
2023-02-23T03:10:32.894Z,30.75
2023-02-23T03:13:09.793Z,28.73
2023-02-23T03:16:13.005Z,30.58
2023-02-23T03:19:11.470Z,30.70
2023-02-23T03:22:12.937Z,31.35
2023-02-23T03:24:48.108Z,30.88
2023-02-23T03:27:26.985Z,30.60
2023-02-23T03:30:00.131Z,33.55
2023-02-23T03:32:54.005Z,32.72
2023-02-23T03:35:29.115Z,29.98
2023-02-23T03:38:28.929Z,31.25
2023-02-23T03:41:01.955Z,32.38
2023-02-23T03:43:36.786Z,32.65
2023-02-23T03:46:11.958Z,34.15
2023-02-23T03:48:44.924Z,32.45
2023-02-23T03:51:12.109Z,34.53
2023-02-23T03:53:59.974Z,33.63
2023-02-23T03:56:33.999Z,35.35
2023-02-23T03:59:01.270Z,36.40
2023-02-23T04:01:35.014Z,34.90
2023-02-23T04:04:02.008Z,34.00
2023-02-23T04:06:31.537Z,34.88
2023-02-23T04:09:07.914Z,36.30
2023-02-23T04:11:38.559Z,33.42
2023-02-23T04:14:14.929Z,34.05
2023-02-23T04:16:42.037Z,35.03
2023-02-23T04:19:16.041Z,34.85
2023-02-23T04:21:43.031Z,34.88
2023-02-23T04:24:17.029Z,32.85
2023-02-23T04:26:44.143Z,31.92
2023-02-23T04:29:18.976Z,31.35
2023-02-23T04:31:45.929Z,31.33
2023-02-23T04:34:19.062Z,32.88
2023-02-23T04:36:46.152Z,33.42
2023-02-23T04:39:19.965Z,31.88
2023-02-23T04:41:47.020Z,33.63
2023-02-23T04:44:13.991Z,31.73
2023-02-23T04:46:47.049Z,32.92
2023-02-23T04:49:13.998Z,32.97
2023-02-23T04:51:47.972Z,32.40
2023-02-23T04:54:15.081Z,33.83
2023-02-23T04:56:42.163Z,31.88
2023-02-23T04:59:15.962Z,33.50
2023-02-23T05:01:49.968Z,32.90
2023-02-23T05:04:16.953Z,31.83
2023-02-23T05:06:43.921Z,32.08
2023-02-23T05:09:17.018Z,34.72
2023-02-23T05:11:44.036Z,33.92
2023-02-23T05:14:11.063Z,33.17
2023-02-23T05:16:45.029Z,32.85
2023-02-23T05:19:19.001Z,34.25
2023-02-23T05:21:45.980Z,34.65
2023-02-23T05:24:13.177Z,32.83
2023-02-23T05:26:47.041Z,31.13
2023-02-23T05:29:14.068Z,32.05
2023-02-23T05:31:41.138Z,31.27
2023-02-23T05:34:15.001Z,32.63
2023-02-23T05:36:42.065Z,32.65
2023-02-23T05:39:15.979Z,31.30
2023-02-23T05:41:43.006Z,32.53
2023-02-23T05:44:16.038Z,33.10
2023-02-23T05:46:48.992Z,30.85
2023-02-23T05:49:15.964Z,33.25
2023-02-23T05:51:42.875Z,32.75
2023-02-23T05:54:15.999Z,33.58
2023-02-23T05:56:43.134Z,34.15
2023-02-23T05:59:17.043Z,33.95
2023-02-23T06:01:51.045Z,35.05
2023-02-23T06:04:17.919Z,35.30
2023-02-23T06:06:51.036Z,34.95
2023-02-23T06:09:17.942Z,37.85
2023-02-23T06:11:44.878Z,40.35
2023-02-23T06:14:18.065Z,39.17
2023-02-23T06:16:45.193Z,36.63
2023-02-23T06:19:19.078Z,36.65
2023-02-23T06:21:46.137Z,35.67
2023-02-23T06:24:13.097Z,34.47
2023-02-23T06:26:47.062Z,34.63
2023-02-23T06:29:20.336Z,34.33
2023-02-23T06:31:47.452Z,34.88
2023-02-23T06:34:14.509Z,33.70
2023-02-23T06:36:48.011Z,34.85
2023-02-23T06:39:14.892Z,34.88
2023-02-23T06:41:48.058Z,35.10
2023-02-23T06:44:21.091Z,37.60
2023-02-23T06:46:48.026Z,37.60
2023-02-23T06:49:21.101Z,39.67
2023-02-23T06:51:48.021Z,38.13
2023-02-23T06:54:21.012Z,39.85
2023-02-23T06:56:47.978Z,37.13
2023-02-23T06:59:14.936Z,35.92
2023-02-23T07:01:48.071Z,35.67
2023-02-23T07:04:16.841Z,35.20
2023-02-23T07:06:44.097Z,34.95
2023-02-23T07:09:18.100Z,36.78
2023-02-23T07:11:45.058Z,46.17
2023-02-23T07:14:26.492Z,45.58
2023-02-23T07:16:54.402Z,55.50
2023-02-23T07:19:28.062Z,55.17
2023-02-23T07:21:55.039Z,45.53
2023-02-23T07:24:29.039Z,47.17
2023-02-23T07:26:55.955Z,46.67
2023-02-23T07:29:30.036Z,44.65
2023-02-23T07:31:57.109Z,47.13
2023-02-23T07:34:24.188Z,46.72
2023-02-23T07:36:58.107Z,52.10
2023-02-23T07:39:25.141Z,52.70
2023-02-23T07:41:52.136Z,48.63
2023-02-23T07:44:26.103Z,45.85
2023-02-23T07:46:59.100Z,38.88
2023-02-23T07:49:26.173Z,38.13
2023-02-23T07:51:53.299Z,37.20
2023-02-23T07:54:27.141Z,36.47
2023-02-23T07:56:54.134Z,36.38
2023-02-23T07:59:28.147Z,36.67
2023-02-23T08:02:02.109Z,39.08
2023-02-23T08:04:29.206Z,39.20
2023-02-23T08:07:03.159Z,38.53
2023-02-23T08:09:30.200Z,39.55
2023-02-23T08:11:58.165Z,41.97
2023-02-23T08:14:32.179Z,42.55
2023-02-23T08:17:06.180Z,42.92
2023-02-23T08:19:33.280Z,42.42
2023-02-23T08:22:09.820Z,40.55
2023-02-23T08:24:37.700Z,41.20
2023-02-23T08:27:04.874Z,40.72
2023-02-23T08:29:38.133Z,45.13
2023-02-23T08:32:05.891Z,46.17
2023-02-23T08:34:47.181Z,45.78
2023-02-23T08:37:14.331Z,46.70
2023-02-23T08:39:43.396Z,46.75
2023-02-23T08:42:17.071Z,44.42
2023-02-23T08:44:43.948Z,44.35
2023-02-23T08:47:17.105Z,47.55
2023-02-23T08:49:44.115Z,49.88
2023-02-23T08:52:24.156Z,49.17
2023-02-23T08:54:51.249Z,46.75
2023-02-23T08:57:25.168Z,46.22
2023-02-23T08:59:52.247Z,48.88
2023-02-23T09:02:19.366Z,46.05
2023-02-23T09:04:53.285Z,49.97
2023-02-23T09:07:28.244Z,50.63
2023-02-23T09:09:58.762Z,48.30
2023-02-23T09:12:32.214Z,48.90
2023-02-23T09:15:15.087Z,50.45
2023-02-23T09:17:42.114Z,50.72
2023-02-23T09:20:17.156Z,48.53
2023-02-23T09:22:50.876Z,51.33
2023-02-23T09:25:27.226Z,49.15
2023-02-23T09:28:01.124Z,49.08
2023-02-23T09:30:28.314Z,50.33
2023-02-23T09:33:02.215Z,48.72
2023-02-23T09:35:29.153Z,49.38
2023-02-23T09:37:56.319Z,49.45
2023-02-23T09:40:36.216Z,49.53
2023-02-23T09:43:17.208Z,51.25
2023-02-23T09:45:53.515Z,46.60
2023-02-23T09:48:35.216Z,49.78
2023-02-23T09:51:02.319Z,51.55
2023-02-23T09:53:57.195Z,53.13
2023-02-23T09:56:43.188Z,48.72
2023-02-23T09:59:18.582Z,50.13
2023-02-23T10:01:55.198Z,50.08
2023-02-23T10:04:38.596Z,48.67
2023-02-23T10:07:21.141Z,48.30
2023-02-23T10:10:28.299Z,50.33
2023-02-23T10:13:45.489Z,48.78
2023-02-23T10:16:43.266Z,43.53
2023-02-23T10:19:52.413Z,42.22
2023-02-23T10:22:26.225Z,38.80
2023-02-23T10:25:07.225Z,38.63
2023-02-23T10:27:41.573Z,37.33
2023-02-23T10:30:33.223Z,38.28
2023-02-23T10:33:16.660Z,34.13
2023-02-23T10:35:51.202Z,40.72
2023-02-23T10:38:19.411Z,40.05
2023-02-23T10:40:57.204Z,40.03
2023-02-23T10:43:31.225Z,39.95
2023-02-23T10:45:58.191Z,39.88
2023-02-23T10:48:50.296Z,41.17
2023-02-23T10:51:25.369Z,37.83
2023-02-23T10:54:07.501Z,38.97
2023-02-23T10:56:34.866Z,38.47
2023-02-23T10:59:08.228Z,37.03
2023-02-23T11:01:52.186Z,36.25
2023-02-23T11:04:39.331Z,33.83
2023-02-23T11:07:27.987Z,34.75
2023-02-23T11:10:03.192Z,35.28
2023-02-23T11:12:39.842Z,37.47
2023-02-23T11:15:48.097Z,41.25
2023-02-23T11:18:22.848Z,36.42
2023-02-23T11:20:56.186Z,31.15
2023-02-23T11:23:28.906Z,29.92
2023-02-23T11:26:06.238Z,33.22
2023-02-23T11:28:36.341Z,27.88
2023-02-23T11:31:21.848Z,26.45
2023-02-23T11:33:49.227Z,30.38
2023-02-23T11:36:42.164Z,31.92
2023-02-23T11:39:17.763Z,29.00
2023-02-23T11:41:51.293Z,27.95
2023-02-23T11:44:23.443Z,26.35
2023-02-23T11:46:57.304Z,29.42
2023-02-23T11:49:31.789Z,27.90
2023-02-23T11:52:05.203Z,26.05
2023-02-23T11:54:40.243Z,25.42
2023-02-23T11:57:09.697Z,25.42
2023-02-23T11:59:39.555Z,29.88
2023-02-23T12:02:32.263Z,30.98
2023-02-23T12:05:22.262Z,29.58
2023-02-23T12:08:48.244Z,29.20
2023-02-23T12:11:19.366Z,26.85
2023-02-23T12:14:27.476Z,27.38
2023-02-23T12:17:06.178Z,25.73
2023-02-23T12:19:55.484Z,22.52
2023-02-23T12:22:39.195Z,25.52
2023-02-23T12:25:29.576Z,23.20
2023-02-23T12:28:18.505Z,19.92
2023-02-23T12:30:52.278Z,20.67
2023-02-23T12:33:30.343Z,21.25
2023-02-23T12:36:02.712Z,21.52
2023-02-23T12:39:05.374Z,20.40
2023-02-23T12:41:57.010Z,22.60
2023-02-23T12:44:41.352Z,21.92
2023-02-23T12:47:31.950Z,22.95
2023-02-23T12:50:10.247Z,22.98
2023-02-23T12:53:07.920Z,22.77
2023-02-23T12:56:01.264Z,21.40
2023-02-23T12:58:48.863Z,23.23
2023-02-23T13:01:41.354Z,22.65
2023-02-23T13:04:43.881Z,22.75
2023-02-23T13:07:31.268Z,25.08
2023-02-23T13:10:15.323Z,22.45
2023-02-23T13:13:19.096Z,25.23
2023-02-23T13:16:26.392Z,26.23
2023-02-23T13:19:25.339Z,25.73
2023-02-23T13:22:21.236Z,23.77
2023-02-23T13:24:48.535Z,22.25
2023-02-23T13:27:31.316Z,23.02
2023-02-23T13:29:58.255Z,22.52
2023-02-23T13:32:40.354Z,22.52
2023-02-23T13:35:17.752Z,22.88
2023-02-23T13:38:22.287Z,21.95
2023-02-23T13:41:11.848Z,20.58
2023-02-23T13:44:14.318Z,25.02
2023-02-23T13:47:14.527Z,24.48
2023-02-23T13:49:56.298Z,20.92
2023-02-23T13:52:43.699Z,21.10
2023-02-23T13:55:46.936Z,22.10
2023-02-23T13:58:25.978Z,20.45
2023-02-23T14:01:18.723Z,19.42
2023-02-23T14:04:04.312Z,22.80
2023-02-23T14:06:33.411Z,22.48
2023-02-23T14:09:41.436Z,21.17
2023-02-23T14:12:11.048Z,20.85
2023-02-23T14:14:46.249Z,20.73
2023-02-23T14:17:22.320Z,21.83
2023-02-23T14:20:13.363Z,21.92
2023-02-23T14:23:27.385Z,22.13
2023-02-23T14:26:18.320Z,20.92
2023-02-23T14:29:24.346Z,21.15
2023-02-23T14:32:15.139Z,20.80
2023-02-23T14:34:57.370Z,21.65
2023-02-23T14:37:41.672Z,26.40
2023-02-23T14:40:24.293Z,23.67
2023-02-23T14:42:52.933Z,21.58
2023-02-23T14:45:22.824Z,24.00
2023-02-23T14:47:57.415Z,22.65
2023-02-23T14:50:30.530Z,20.67
2023-02-23T14:53:04.392Z,22.13
2023-02-23T14:55:33.332Z,22.77
2023-02-23T14:58:00.303Z,21.83
2023-02-23T15:00:39.350Z,21.45
2023-02-23T15:06:06.306Z,22.33
2023-02-23T15:08:33.523Z,19.52
2023-02-23T15:11:20.693Z,20.58
2023-02-23T15:13:51.936Z,20.65
2023-02-23T15:16:37.339Z,21.02
2023-02-23T15:19:04.421Z,25.73
2023-02-23T15:21:31.377Z,22.45
2023-02-23T15:24:19.328Z,22.90
2023-02-23T15:26:46.744Z,21.67
2023-02-23T15:29:22.349Z,21.58
2023-02-23T15:31:59.482Z,23.15
2023-02-23T15:34:34.392Z,21.50
2023-02-23T15:37:03.832Z,19.90
2023-02-23T15:39:56.362Z,23.77
2023-02-23T15:42:48.369Z,21.75
2023-02-23T15:45:23.614Z,22.58
2023-02-23T15:48:04.576Z,22.08
2023-02-23T15:50:41.717Z,21.45
2023-02-23T15:53:18.577Z,24.40
2023-02-23T15:55:52.341Z,23.60
2023-02-23T15:58:32.294Z,22.88
2023-02-23T16:01:15.419Z,22.30
2023-02-23T16:04:05.433Z,22.90
2023-02-23T16:06:38.149Z,21.42
2023-02-23T16:09:24.482Z,23.10
2023-02-23T16:12:01.948Z,24.13
2023-02-23T16:14:58.378Z,23.25
2023-02-23T16:17:43.883Z,20.75
2023-02-23T16:20:35.506Z,24.08
2023-02-23T16:23:02.965Z,23.85
2023-02-23T16:25:39.561Z,23.10
2023-02-23T16:28:10.192Z,22.85
2023-02-23T16:30:57.428Z,21.70
2023-02-23T16:33:25.993Z,22.52
2023-02-23T16:36:11.428Z,23.60
2023-02-23T16:38:46.222Z,24.02
2023-02-23T16:41:27.395Z,23.23
2023-02-23T16:43:55.715Z,22.75
2023-02-23T16:46:24.774Z,25.17
2023-02-23T16:48:58.598Z,23.05
2023-02-23T16:51:26.831Z,22.25
2023-02-23T16:53:53.731Z,21.25
2023-02-23T16:56:28.436Z,21.13
2023-02-23T16:58:58.608Z,21.77
2023-02-23T17:01:32.391Z,22.25
2023-02-23T17:03:59.354Z,22.15
2023-02-23T17:06:35.519Z,24.52
2023-02-23T17:09:02.659Z,23.17
2023-02-23T17:11:36.541Z,20.27
2023-02-23T17:14:03.469Z,22.33
2023-02-23T17:16:36.443Z,23.48
2023-02-23T17:19:03.404Z,22.60
2023-02-23T17:21:36.577Z,25.40
2023-02-23T17:24:10.455Z,24.75
2023-02-23T17:26:37.360Z,26.70
2023-02-23T17:29:10.432Z,29.58
2023-02-23T17:31:37.536Z,29.60
2023-02-23T17:34:04.530Z,28.45
2023-02-23T17:36:38.444Z,28.15
2023-02-23T17:39:05.405Z,29.00
2023-02-23T17:41:32.334Z,28.52
2023-02-23T17:44:05.462Z,28.20
2023-02-23T17:46:38.549Z,26.48
2023-02-23T17:49:05.604Z,26.42
2023-02-23T17:51:32.498Z,27.85
2023-02-23T17:54:05.404Z,27.27
2023-02-23T17:56:38.473Z,31.10
2023-02-23T17:59:54.147Z,35.10
2023-02-23T18:02:28.467Z,40.15
2023-02-23T18:05:02.484Z,37.85
2023-02-23T18:07:29.449Z,40.53
2023-02-23T18:09:56.409Z,38.45
2023-02-23T18:12:29.491Z,35.50
2023-02-23T18:15:03.455Z,33.60
2023-02-23T18:17:30.431Z,31.30
2023-02-23T18:19:57.367Z,29.95
2023-02-23T18:22:30.465Z,31.65
2023-02-23T18:25:11.530Z,34.28
2023-02-23T18:27:44.549Z,32.25
2023-02-23T18:30:12.461Z,32.00
2023-02-23T18:32:39.396Z,28.70
2023-02-23T18:35:13.466Z,29.15
2023-02-23T18:37:40.414Z,28.55
2023-02-23T18:40:14.488Z,32.88
2023-02-23T18:42:41.484Z,38.33
2023-02-23T18:45:09.013Z,36.67
2023-02-23T18:47:42.486Z,32.08
2023-02-23T18:50:11.181Z,31.75
2023-02-23T18:52:45.536Z,27.42
2023-02-23T18:55:13.622Z,23.67
2023-02-23T18:57:40.559Z,22.60
2023-02-23T19:00:14.474Z,21.45
2023-02-23T19:02:48.482Z,20.48
2023-02-23T19:05:17.529Z,20.27
2023-02-23T19:07:51.547Z,19.75
2023-02-23T19:10:18.618Z,20.70
2023-02-23T19:12:45.534Z,21.00
2023-02-23T19:15:18.498Z,21.23
2023-02-23T19:17:47.190Z,23.90
2023-02-23T19:20:21.492Z,23.65
2023-02-23T19:22:48.432Z,25.00
2023-02-23T19:25:15.424Z,25.95
2023-02-23T19:27:49.525Z,25.23
2023-02-23T19:30:16.500Z,23.52
2023-02-23T19:32:49.790Z,23.58
2023-02-23T19:35:17.015Z,22.63
2023-02-23T19:37:58.498Z,21.80
2023-02-23T19:40:25.460Z,22.60
2023-02-23T19:42:52.393Z,25.13
2023-02-23T19:45:25.532Z,23.10
2023-02-23T19:47:53.144Z,26.42
2023-02-23T19:50:20.406Z,26.65
2023-02-23T19:52:54.522Z,30.50
2023-02-23T19:55:21.454Z,28.67
2023-02-23T19:57:48.368Z,31.65
2023-02-23T20:00:22.528Z,30.15
2023-02-23T20:02:51.965Z,27.38
2023-02-23T20:05:25.592Z,25.48
2023-02-23T20:07:52.637Z,26.15
2023-02-23T20:10:26.563Z,27.13
2023-02-23T20:13:02.438Z,26.08
2023-02-23T20:15:35.519Z,26.05
2023-02-23T20:18:02.390Z,25.67
2023-02-23T20:20:37.601Z,25.90
2023-02-23T20:23:04.466Z,26.73
2023-02-23T20:25:37.539Z,27.58
2023-02-23T20:28:04.703Z,25.85
2023-02-23T20:30:31.649Z,26.42
2023-02-23T20:33:05.535Z,25.73
2023-02-23T20:35:32.663Z,25.35
2023-02-23T20:38:06.554Z,25.27
2023-02-23T20:40:33.637Z,25.17
2023-02-23T20:43:07.542Z,25.17
2023-02-23T20:45:34.576Z,26.48
2023-02-23T20:48:07.581Z,27.40
2023-02-23T20:50:34.449Z,27.30
2023-02-23T20:53:07.558Z,27.05
2023-02-23T20:55:41.510Z,27.90
2023-02-23T20:58:08.462Z,27.90
2023-02-23T21:00:41.558Z,30.08
2023-02-23T21:03:08.514Z,29.15
2023-02-23T21:05:39.283Z,29.10
2023-02-23T21:08:13.617Z,29.98
2023-02-23T21:10:40.538Z,28.90
2023-02-23T21:13:07.559Z,28.60
2023-02-23T21:15:40.576Z,29.73
2023-02-23T21:18:07.801Z,30.60
2023-02-23T21:20:41.591Z,31.42
2023-02-23T21:23:08.529Z,29.35
2023-02-23T21:25:35.456Z,29.90
2023-02-23T21:28:08.571Z,28.92
2023-02-23T21:30:41.635Z,35.50
2023-02-23T21:33:08.681Z,32.45
2023-02-23T21:35:42.579Z,31.55
2023-02-23T21:38:09.508Z,29.40
2023-02-23T21:40:43.572Z,31.83
2023-02-23T21:43:10.472Z,29.00
2023-02-23T21:45:39.431Z,29.30
2023-02-23T21:48:12.592Z,30.88
2023-02-23T21:50:39.646Z,31.10
2023-02-23T21:53:13.574Z,31.30
2023-02-23T21:55:40.513Z,31.48
2023-02-23T21:58:07.712Z,30.88
2023-02-23T22:00:41.566Z,32.13
2023-02-23T22:03:08.614Z,31.17
2023-02-23T22:05:41.597Z,32.33
2023-02-23T22:08:08.599Z,32.40
2023-02-23T22:10:41.648Z,30.15
2023-02-23T22:13:14.606Z,30.40
2023-02-23T22:15:48.644Z,29.95
2023-02-23T22:18:15.667Z,29.25
2023-02-23T22:20:42.572Z,30.20
2023-02-23T22:23:15.593Z,31.20
2023-02-23T22:25:42.509Z,34.40
2023-02-23T22:28:09.429Z,37.13
2023-02-23T22:30:42.568Z,37.45
2023-02-23T22:33:09.551Z,34.15
2023-02-23T22:35:46.554Z,34.58
2023-02-23T22:38:13.694Z,34.83
2023-02-23T22:40:47.582Z,32.70
2023-02-23T22:43:14.556Z,33.90
2023-02-23T22:45:41.588Z,33.50
2023-02-23T22:48:15.600Z,33.70
2023-02-23T22:50:42.713Z,32.88
2023-02-23T22:53:09.965Z,31.35
2023-02-23T22:55:43.828Z,33.25
2023-02-23T22:58:10.920Z,32.20
2023-02-23T23:00:44.588Z,33.78
2023-02-23T23:03:11.683Z,33.53
2023-02-23T23:05:38.881Z,33.78
2023-02-23T23:08:12.616Z,32.45
2023-02-23T23:10:39.602Z,33.75
2023-02-23T23:13:12.668Z,32.70
2023-02-23T23:15:39.861Z,31.60
2023-02-23T23:18:13.659Z,31.83
2023-02-23T23:20:40.841Z,31.98
2023-02-23T23:23:07.820Z,34.47
2023-02-23T23:25:41.604Z,32.83
2023-02-23T23:28:08.591Z,32.90
2023-02-23T23:30:42.683Z,32.22
2023-02-23T23:33:09.842Z,31.50
2023-02-23T23:35:43.609Z,33.38
2023-02-23T23:38:10.538Z,32.70
2023-02-23T23:40:37.457Z,32.17
2023-02-23T23:43:10.675Z,31.23
2023-02-23T23:45:39.638Z,29.80
2023-02-23T23:48:12.655Z,30.48
2023-02-23T23:50:39.683Z,30.85
2023-02-23T23:53:06.696Z,30.63
2023-02-23T23:55:40.761Z,30.38
2023-02-23T23:58:14.630Z,29.38
